sensor_id;sensor_type;location;lat;lon;timestamp;temperature;humidity
72202;SHT30;60105;54.956;73.412;2022-10-16T00:01:21;12.39;60.10
72202;SHT30;60105;54.956;73.412;2022-10-16T00:03:48;12.33;60.60
72202;SHT30;60105;54.956;73.412;2022-10-16T00:06:18;12.33;59.95
72202;SHT30;60105;54.956;73.412;2022-10-16T00:08:45;12.36;60.07
72202;SHT30;60105;54.956;73.412;2022-10-16T00:11:24;12.28;60.25
72202;SHT30;60105;54.956;73.412;2022-10-16T00:13:54;12.17;60.48
72202;SHT30;60105;54.956;73.412;2022-10-16T00:16:20;12.25;60.28
72202;SHT30;60105;54.956;73.412;2022-10-16T00:18:47;12.35;59.78
72202;SHT30;60105;54.956;73.412;2022-10-16T00:21:17;12.36;59.83
72202;SHT30;60105;54.956;73.412;2022-10-16T00:24:06;12.30;59.75
72202;SHT30;60105;54.956;73.412;2022-10-16T00:26:34;12.38;60.00
72202;SHT30;60105;54.956;73.412;2022-10-16T00:29:00;12.36;59.55
72202;SHT30;60105;54.956;73.412;2022-10-16T00:31:27;12.36;59.64
72202;SHT30;60105;54.956;73.412;2022-10-16T00:33:53;12.18;59.96
72202;SHT30;60105;54.956;73.412;2022-10-16T00:36:21;12.02;60.81
72202;SHT30;60105;54.956;73.412;2022-10-16T00:38:51;11.97;60.69
72202;SHT30;60105;54.956;73.412;2022-10-16T00:41:20;12.01;60.75
72202;SHT30;60105;54.956;73.412;2022-10-16T00:43:53;11.98;60.65
72202;SHT30;60105;54.956;73.412;2022-10-16T00:46:26;12.01;60.34
72202;SHT30;60105;54.956;73.412;2022-10-16T00:49:05;12.02;60.20
72202;SHT30;60105;54.956;73.412;2022-10-16T00:51:38;12.06;60.07
72202;SHT30;60105;54.956;73.412;2022-10-16T00:54:14;11.94;59.16
72202;SHT30;60105;54.956;73.412;2022-10-16T00:56:41;11.73;60.73
72202;SHT30;60105;54.956;73.412;2022-10-16T00:59:21;11.84;59.96
72202;SHT30;60105;54.956;73.412;2022-10-16T01:01:55;11.71;60.24
72202;SHT30;60105;54.956;73.412;2022-10-16T01:04:23;11.70;60.11
72202;SHT30;60105;54.956;73.412;2022-10-16T01:09:36;11.51;60.76
72202;SHT30;60105;54.956;73.412;2022-10-16T01:14:53;11.59;59.68
72202;SHT30;60105;54.956;73.412;2022-10-16T01:17:31;11.63;60.24
72202;SHT30;60105;54.956;73.412;2022-10-16T01:31:22;11.23;59.50
72202;SHT30;60105;54.956;73.412;2022-10-16T01:34:27;11.08;60.76
72202;SHT30;60105;54.956;73.412;2022-10-16T01:37:09;11.24;59.84
72202;SHT30;60105;54.956;73.412;2022-10-16T01:39:39;11.33;60.05
72202;SHT30;60105;54.956;73.412;2022-10-16T01:42:17;11.43;59.41
72202;SHT30;60105;54.956;73.412;2022-10-16T01:44:47;11.33;59.26
72202;SHT30;60105;54.956;73.412;2022-10-16T01:47:14;11.27;59.18
72202;SHT30;60105;54.956;73.412;2022-10-16T01:49:43;11.20;59.62
72202;SHT30;60105;54.956;73.412;2022-10-16T01:52:13;11.12;59.41
72202;SHT30;60105;54.956;73.412;2022-10-16T01:54:42;11.03;59.35
72202;SHT30;60105;54.956;73.412;2022-10-16T01:57:10;11.12;59.42
72202;SHT30;60105;54.956;73.412;2022-10-16T01:59:43;11.15;59.00
72202;SHT30;60105;54.956;73.412;2022-10-16T02:02:10;11.26;58.68
72202;SHT30;60105;54.956;73.412;2022-10-16T02:04:46;11.24;58.71
72202;SHT30;60105;54.956;73.412;2022-10-16T02:07:13;11.18;58.74
72202;SHT30;60105;54.956;73.412;2022-10-16T02:09:40;11.23;58.81
72202;SHT30;60105;54.956;73.412;2022-10-16T02:12:12;11.10;58.54
72202;SHT30;60105;54.956;73.412;2022-10-16T02:14:39;11.29;58.63
72202;SHT30;60105;54.956;73.412;2022-10-16T02:17:14;11.46;58.17
72202;SHT30;60105;54.956;73.412;2022-10-16T02:19:41;11.36;56.98
72202;SHT30;60105;54.956;73.412;2022-10-16T02:22:10;11.31;57.72
72202;SHT30;60105;54.956;73.412;2022-10-16T02:24:54;11.27;57.07
72202;SHT30;60105;54.956;73.412;2022-10-16T02:33:07;11.34;57.10
72202;SHT30;60105;54.956;73.412;2022-10-16T02:35:36;11.29;58.00
72202;SHT30;60105;54.956;73.412;2022-10-16T02:38:03;11.37;56.79
72202;SHT30;60105;54.956;73.412;2022-10-16T02:40:29;11.30;57.20
72202;SHT30;60105;54.956;73.412;2022-10-16T02:42:56;11.36;56.99
72202;SHT30;60105;54.956;73.412;2022-10-16T02:45:23;11.36;56.82
72202;SHT30;60105;54.956;73.412;2022-10-16T02:47:49;11.54;57.38
72202;SHT30;60105;54.956;73.412;2022-10-16T02:50:16;11.60;55.95
72202;SHT30;60105;54.956;73.412;2022-10-16T02:52:43;11.66;56.03
72202;SHT30;60105;54.956;73.412;2022-10-16T02:55:09;11.70;55.61
72202;SHT30;60105;54.956;73.412;2022-10-16T02:57:35;11.71;56.14
72202;SHT30;60105;54.956;73.412;2022-10-16T03:00:04;11.77;56.20
72202;SHT30;60105;54.956;73.412;2022-10-16T03:02:30;11.70;55.56
72202;SHT30;60105;54.956;73.412;2022-10-16T03:04:57;11.82;56.27
72202;SHT30;60105;54.956;73.412;2022-10-16T03:07:23;11.87;55.09
72202;SHT30;60105;54.956;73.412;2022-10-16T03:09:49;11.90;55.78
72202;SHT30;60105;54.956;73.412;2022-10-16T03:12:15;11.88;55.54
72202;SHT30;60105;54.956;73.412;2022-10-16T03:14:41;11.91;55.47
72202;SHT30;60105;54.956;73.412;2022-10-16T03:17:08;11.90;55.67
72202;SHT30;60105;54.956;73.412;2022-10-16T03:19:34;11.80;55.33
72202;SHT30;60105;54.956;73.412;2022-10-16T03:22:01;11.97;55.08
72202;SHT30;60105;54.956;73.412;2022-10-16T03:24:27;12.06;54.87
72202;SHT30;60105;54.956;73.412;2022-10-16T03:26:54;12.21;55.34
72202;SHT30;60105;54.956;73.412;2022-10-16T03:29:20;12.32;55.26
72202;SHT30;60105;54.956;73.412;2022-10-16T03:31:46;12.42;54.41
72202;SHT30;60105;54.956;73.412;2022-10-16T03:34:15;12.35;53.62
72202;SHT30;60105;54.956;73.412;2022-10-16T03:36:41;12.33;55.13
72202;SHT30;60105;54.956;73.412;2022-10-16T03:39:08;12.30;54.43
72202;SHT30;60105;54.956;73.412;2022-10-16T03:41:34;12.56;54.32
72202;SHT30;60105;54.956;73.412;2022-10-16T03:44:01;12.61;54.05
72202;SHT30;60105;54.956;73.412;2022-10-16T03:46:27;12.90;53.47
72202;SHT30;60105;54.956;73.412;2022-10-16T03:48:53;13.10;51.37
72202;SHT30;60105;54.956;73.412;2022-10-16T03:51:19;13.28;51.89
72202;SHT30;60105;54.956;73.412;2022-10-16T03:53:45;13.49;51.78
72202;SHT30;60105;54.956;73.412;2022-10-16T03:56:12;13.32;51.89
72202;SHT30;60105;54.956;73.412;2022-10-16T03:58:38;13.22;50.78
72202;SHT30;60105;54.956;73.412;2022-10-16T04:01:04;13.27;51.44
72202;SHT30;60105;54.956;73.412;2022-10-16T04:03:30;13.35;50.70
72202;SHT30;60105;54.956;73.412;2022-10-16T04:05:57;13.25;50.11
72202;SHT30;60105;54.956;73.412;2022-10-16T04:08:23;13.14;51.42
72202;SHT30;60105;54.956;73.412;2022-10-16T04:10:49;13.11;51.50
72202;SHT30;60105;54.956;73.412;2022-10-16T04:13:21;13.15;50.81
72202;SHT30;60105;54.956;73.412;2022-10-16T04:15:47;13.27;51.09
72202;SHT30;60105;54.956;73.412;2022-10-16T04:18:13;13.39;49.56
72202;SHT30;60105;54.956;73.412;2022-10-16T04:20:40;13.54;49.50
72202;SHT30;60105;54.956;73.412;2022-10-16T04:23:06;13.69;48.47
72202;SHT30;60105;54.956;73.412;2022-10-16T04:25:32;13.69;48.81
72202;SHT30;60105;54.956;73.412;2022-10-16T04:27:59;13.67;50.32
72202;SHT30;60105;54.956;73.412;2022-10-16T04:30:25;13.55;47.88
72202;SHT30;60105;54.956;73.412;2022-10-16T04:32:52;13.56;48.54
72202;SHT30;60105;54.956;73.412;2022-10-16T04:35:19;13.66;48.33
72202;SHT30;60105;54.956;73.412;2022-10-16T04:37:46;13.73;48.55
72202;SHT30;60105;54.956;73.412;2022-10-16T04:40:22;13.87;46.78
72202;SHT30;60105;54.956;73.412;2022-10-16T04:42:49;14.12;48.16
72202;SHT30;60105;54.956;73.412;2022-10-16T04:45:15;14.17;46.27
72202;SHT30;60105;54.956;73.412;2022-10-16T04:47:46;14.23;46.86
72202;SHT30;60105;54.956;73.412;2022-10-16T04:50:13;14.25;46.48
72202;SHT30;60105;54.956;73.412;2022-10-16T04:52:39;14.21;46.46
72202;SHT30;60105;54.956;73.412;2022-10-16T04:55:06;14.24;46.67
72202;SHT30;60105;54.956;73.412;2022-10-16T04:57:32;14.31;46.52
72202;SHT30;60105;54.956;73.412;2022-10-16T04:59:59;14.40;46.47
72202;SHT30;60105;54.956;73.412;2022-10-16T05:02:25;14.35;46.34
72202;SHT30;60105;54.956;73.412;2022-10-16T05:04:51;14.30;45.79
72202;SHT30;60105;54.956;73.412;2022-10-16T05:07:23;14.25;46.68
72202;SHT30;60105;54.956;73.412;2022-10-16T05:09:50;14.17;46.33
72202;SHT30;60105;54.956;73.412;2022-10-16T05:12:23;14.10;47.02
72202;SHT30;60105;54.956;73.412;2022-10-16T05:14:49;13.96;45.49
72202;SHT30;60105;54.956;73.412;2022-10-16T05:17:26;13.99;46.93
72202;SHT30;60105;54.956;73.412;2022-10-16T05:19:52;14.02;46.67
72202;SHT30;60105;54.956;73.412;2022-10-16T05:22:18;14.12;45.50
72202;SHT30;60105;54.956;73.412;2022-10-16T05:24:45;14.13;46.14
72202;SHT30;60105;54.956;73.412;2022-10-16T05:27:11;14.10;45.93
72202;SHT30;60105;54.956;73.412;2022-10-16T05:29:45;14.10;46.89
72202;SHT30;60105;54.956;73.412;2022-10-16T05:32:16;14.09;46.58
72202;SHT30;60105;54.956;73.412;2022-10-16T05:34:42;14.17;46.12
72202;SHT30;60105;54.956;73.412;2022-10-16T05:37:09;14.12;47.14
72202;SHT30;60105;54.956;73.412;2022-10-16T05:39:35;14.07;46.45
72202;SHT30;60105;54.956;73.412;2022-10-16T05:42:04;14.07;46.60
72202;SHT30;60105;54.956;73.412;2022-10-16T05:44:30;14.14;45.94
72202;SHT30;60105;54.956;73.412;2022-10-16T05:46:57;14.18;46.48
72202;SHT30;60105;54.956;73.412;2022-10-16T05:49:23;14.20;46.40
72202;SHT30;60105;54.956;73.412;2022-10-16T05:51:49;14.31;47.07
72202;SHT30;60105;54.956;73.412;2022-10-16T05:54:16;14.38;45.79
72202;SHT30;60105;54.956;73.412;2022-10-16T05:56:43;14.34;45.64
72202;SHT30;60105;54.956;73.412;2022-10-16T05:59:09;14.33;46.34
72202;SHT30;60105;54.956;73.412;2022-10-16T06:01:35;14.28;46.45
72202;SHT30;60105;54.956;73.412;2022-10-16T06:04:02;14.21;46.23
72202;SHT30;60105;54.956;73.412;2022-10-16T06:06:29;14.17;46.47
72202;SHT30;60105;54.956;73.412;2022-10-16T06:08:57;14.23;46.26
72202;SHT30;60105;54.956;73.412;2022-10-16T06:11:26;14.24;47.04
72202;SHT30;60105;54.956;73.412;2022-10-16T06:13:56;14.31;46.76
72202;SHT30;60105;54.956;73.412;2022-10-16T06:16:24;14.34;46.45
72202;SHT30;60105;54.956;73.412;2022-10-16T06:18:52;14.40;45.56
72202;SHT30;60105;54.956;73.412;2022-10-16T06:21:20;14.33;45.34
72202;SHT30;60105;54.956;73.412;2022-10-16T06:23:48;14.27;45.80
72202;SHT30;60105;54.956;73.412;2022-10-16T06:26:18;14.24;45.77
72202;SHT30;60105;54.956;73.412;2022-10-16T06:28:44;14.20;46.03
72202;SHT30;60105;54.956;73.412;2022-10-16T06:31:11;14.25;46.78
72202;SHT30;60105;54.956;73.412;2022-10-16T06:33:44;14.31;46.59
72202;SHT30;60105;54.956;73.412;2022-10-16T06:36:14;14.35;46.24
72202;SHT30;60105;54.956;73.412;2022-10-16T06:38:41;14.38;46.67
72202;SHT30;60105;54.956;73.412;2022-10-16T06:41:11;14.41;47.16
72202;SHT30;60105;54.956;73.412;2022-10-16T06:43:37;14.45;47.55
72202;SHT30;60105;54.956;73.412;2022-10-16T06:46:16;14.57;48.11
72202;SHT30;60105;54.956;73.412;2022-10-16T06:48:42;14.54;48.44
72202;SHT30;60105;54.956;73.412;2022-10-16T06:51:14;14.64;48.13
72202;SHT30;60105;54.956;73.412;2022-10-16T06:53:42;14.69;47.98
72202;SHT30;60105;54.956;73.412;2022-10-16T06:56:17;14.76;48.27
72202;SHT30;60105;54.956;73.412;2022-10-16T06:58:44;15.18;47.52
72202;SHT30;60105;54.956;73.412;2022-10-16T07:01:19;15.13;47.89
72202;SHT30;60105;54.956;73.412;2022-10-16T07:03:46;15.07;47.70
72202;SHT30;60105;54.956;73.412;2022-10-16T07:06:23;15.18;47.23
72202;SHT30;60105;54.956;73.412;2022-10-16T07:08:50;15.12;48.27
72202;SHT30;60105;54.956;73.412;2022-10-16T07:11:19;14.89;47.92
72202;SHT30;60105;54.956;73.412;2022-10-16T07:13:47;14.91;47.72
72202;SHT30;60105;54.956;73.412;2022-10-16T07:16:19;14.88;48.13
72202;SHT30;60105;54.956;73.412;2022-10-16T07:18:46;15.00;48.62
72202;SHT30;60105;54.956;73.412;2022-10-16T07:21:23;15.07;47.66
72202;SHT30;60105;54.956;73.412;2022-10-16T07:23:52;15.00;48.72
72202;SHT30;60105;54.956;73.412;2022-10-16T07:26:19;14.99;49.23
72202;SHT30;60105;54.956;73.412;2022-10-16T07:28:45;15.19;49.46
72202;SHT30;60105;54.956;73.412;2022-10-16T07:31:13;15.24;49.14
72202;SHT30;60105;54.956;73.412;2022-10-16T07:33:41;15.22;49.70
72202;SHT30;60105;54.956;73.412;2022-10-16T07:36:10;15.18;50.05
72202;SHT30;60105;54.956;73.412;2022-10-16T07:38:37;15.20;49.35
72202;SHT30;60105;54.956;73.412;2022-10-16T07:41:06;15.13;49.48
72202;SHT30;60105;54.956;73.412;2022-10-16T07:43:39;14.91;50.28
72202;SHT30;60105;54.956;73.412;2022-10-16T07:46:06;14.83;50.75
72202;SHT30;60105;54.956;73.412;2022-10-16T07:48:34;14.74;50.84
72202;SHT30;60105;54.956;73.412;2022-10-16T07:51:02;14.82;51.05
72202;SHT30;60105;54.956;73.412;2022-10-16T07:53:29;14.88;51.68
72202;SHT30;60105;54.956;73.412;2022-10-16T07:56:04;14.91;51.31
72202;SHT30;60105;54.956;73.412;2022-10-16T07:58:32;14.93;51.10
72202;SHT30;60105;54.956;73.412;2022-10-16T08:01:04;14.83;51.11
72202;SHT30;60105;54.956;73.412;2022-10-16T08:03:30;14.75;51.77
72202;SHT30;60105;54.956;73.412;2022-10-16T08:05:57;14.75;51.62
72202;SHT30;60105;54.956;73.412;2022-10-16T08:08:24;14.78;51.51
72202;SHT30;60105;54.956;73.412;2022-10-16T08:10:50;14.88;51.89
72202;SHT30;60105;54.956;73.412;2022-10-16T08:13:16;15.07;51.97
72202;SHT30;60105;54.956;73.412;2022-10-16T08:15:43;15.19;51.67
72202;SHT30;60105;54.956;73.412;2022-10-16T08:18:13;15.33;50.78
72202;SHT30;60105;54.956;73.412;2022-10-16T08:20:40;15.23;50.64
72202;SHT30;60105;54.956;73.412;2022-10-16T08:23:06;15.14;50.79
72202;SHT30;60105;54.956;73.412;2022-10-16T08:25:37;15.10;51.34
72202;SHT30;60105;54.956;73.412;2022-10-16T08:28:12;15.12;51.05
72202;SHT30;60105;54.956;73.412;2022-10-16T08:30:39;15.12;51.55
72202;SHT30;60105;54.956;73.412;2022-10-16T08:33:10;15.18;51.46
72202;SHT30;60105;54.956;73.412;2022-10-16T08:35:37;15.26;50.16
72202;SHT30;60105;54.956;73.412;2022-10-16T08:38:05;15.19;49.93
72202;SHT30;60105;54.956;73.412;2022-10-16T08:40:33;15.02;50.88
72202;SHT30;60105;54.956;73.412;2022-10-16T08:48:45;14.96;51.03
72202;SHT30;60105;54.956;73.412;2022-10-16T08:51:22;14.96;51.70
72202;SHT30;60105;54.956;73.412;2022-10-16T08:53:56;14.91;51.30
72202;SHT30;60105;54.956;73.412;2022-10-16T08:56:23;14.92;51.62
72202;SHT30;60105;54.956;73.412;2022-10-16T08:58:50;14.82;51.51
72202;SHT30;60105;54.956;73.412;2022-10-16T09:01:20;14.86;51.66
72202;SHT30;60105;54.956;73.412;2022-10-16T09:04:09;14.99;51.79
72202;SHT30;60105;54.956;73.412;2022-10-16T09:06:47;15.00;52.22
72202;SHT30;60105;54.956;73.412;2022-10-16T09:09:44;15.02;51.34
72202;SHT30;60105;54.956;73.412;2022-10-16T09:12:29;15.09;51.42
72202;SHT30;60105;54.956;73.412;2022-10-16T09:15:32;15.20;51.01
72202;SHT30;60105;54.956;73.412;2022-10-16T09:18:19;15.06;51.14
72202;SHT30;60105;54.956;73.412;2022-10-16T09:20:59;14.98;51.70
72202;SHT30;60105;54.956;73.412;2022-10-16T09:23:34;14.98;51.95
72202;SHT30;60105;54.956;73.412;2022-10-16T09:26:01;14.86;51.61
72202;SHT30;60105;54.956;73.412;2022-10-16T09:28:28;14.79;52.33
72202;SHT30;60105;54.956;73.412;2022-10-16T09:30:55;14.61;53.52
72202;SHT30;60105;54.956;73.412;2022-10-16T09:33:25;14.61;53.95
72202;SHT30;60105;54.956;73.412;2022-10-16T09:35:56;14.54;54.74
72202;SHT30;60105;54.956;73.412;2022-10-16T09:38:42;14.55;54.52
72202;SHT30;60105;54.956;73.412;2022-10-16T09:41:20;14.38;54.82
72202;SHT30;60105;54.956;73.412;2022-10-16T09:43:58;14.31;55.16
72202;SHT30;60105;54.956;73.412;2022-10-16T09:46:33;14.38;54.99
72202;SHT30;60105;54.956;73.412;2022-10-16T09:49:21;14.27;55.21
72202;SHT30;60105;54.956;73.412;2022-10-16T09:51:49;14.21;55.57
72202;SHT30;60105;54.956;73.412;2022-10-16T09:54:20;14.27;55.89
72202;SHT30;60105;54.956;73.412;2022-10-16T09:56:47;14.25;55.85
72202;SHT30;60105;54.956;73.412;2022-10-16T09:59:20;14.27;56.10
72202;SHT30;60105;54.956;73.412;2022-10-16T10:01:51;14.33;55.93
72202;SHT30;60105;54.956;73.412;2022-10-16T10:04:19;14.42;56.64
72202;SHT30;60105;54.956;73.412;2022-10-16T10:06:50;14.44;56.99
72202;SHT30;60105;54.956;73.412;2022-10-16T10:09:48;14.35;57.32
72202;SHT30;60105;54.956;73.412;2022-10-16T10:14:49;14.46;56.75
72202;SHT30;60105;54.956;73.412;2022-10-16T10:17:21;14.62;57.02
72202;SHT30;60105;54.956;73.412;2022-10-16T10:19:59;14.57;56.50
72202;SHT30;60105;54.956;73.412;2022-10-16T10:38:47;13.89;57.85
72202;SHT30;60105;54.956;73.412;2022-10-16T10:55:33;13.79;59.47
72202;SHT30;60105;54.956;73.412;2022-10-16T11:01:08;13.67;60.61
72202;SHT30;60105;54.956;73.412;2022-10-16T11:08:55;13.46;61.74
72202;SHT30;60105;54.956;73.412;2022-10-16T11:11:49;13.48;62.17
72202;SHT30;60105;54.956;73.412;2022-10-16T11:20:15;13.61;62.86
72202;SHT30;60105;54.956;73.412;2022-10-16T11:23:13;13.59;62.48
72202;SHT30;60105;54.956;73.412;2022-10-16T11:25:46;13.63;63.40
72202;SHT30;60105;54.956;73.412;2022-10-16T11:28:21;13.54;61.87
72202;SHT30;60105;54.956;73.412;2022-10-16T11:34:12;13.46;62.03
72202;SHT30;60105;54.956;73.412;2022-10-16T11:39:29;13.39;61.80
72202;SHT30;60105;54.956;73.412;2022-10-16T11:47:48;13.36;62.18
72202;SHT30;60105;54.956;73.412;2022-10-16T11:50:58;13.35;62.04
72202;SHT30;60105;54.956;73.412;2022-10-16T11:56:15;13.34;62.82
72202;SHT30;60105;54.956;73.412;2022-10-16T12:01:42;13.32;63.35
72202;SHT30;60105;54.956;73.412;2022-10-16T12:04:21;13.38;63.33
72202;SHT30;60105;54.956;73.412;2022-10-16T12:06:58;13.34;63.20
72202;SHT30;60105;54.956;73.412;2022-10-16T12:09:30;13.32;63.17
72202;SHT30;60105;54.956;73.412;2022-10-16T12:11:57;13.31;63.10
72202;SHT30;60105;54.956;73.412;2022-10-16T12:17:27;13.25;63.44
72202;SHT30;60105;54.956;73.412;2022-10-16T12:20:21;13.14;63.92
72202;SHT30;60105;54.956;73.412;2022-10-16T12:22:53;13.07;64.28
72202;SHT30;60105;54.956;73.412;2022-10-16T12:25:34;13.11;64.49
72202;SHT30;60105;54.956;73.412;2022-10-16T12:28:03;13.08;64.48
72202;SHT30;60105;54.956;73.412;2022-10-16T12:30:41;13.03;65.34
72202;SHT30;60105;54.956;73.412;2022-10-16T12:33:37;13.03;65.42
72202;SHT30;60105;54.956;73.412;2022-10-16T12:36:14;12.97;65.46
72202;SHT30;60105;54.956;73.412;2022-10-16T12:38:50;12.88;66.14
72202;SHT30;60105;54.956;73.412;2022-10-16T12:41:28;12.79;66.25
72202;SHT30;60105;54.956;73.412;2022-10-16T12:43:55;12.75;66.59
72202;SHT30;60105;54.956;73.412;2022-10-16T12:48:50;12.59;67.25
72202;SHT30;60105;54.956;73.412;2022-10-16T12:51:23;12.52;67.22
72202;SHT30;60105;54.956;73.412;2022-10-16T12:54:09;12.49;67.04
72202;SHT30;60105;54.956;73.412;2022-10-16T12:57:05;12.40;67.29
72202;SHT30;60105;54.956;73.412;2022-10-16T12:59:42;12.39;68.13
72202;SHT30;60105;54.956;73.412;2022-10-16T13:10:41;12.66;67.14
72202;SHT30;60105;54.956;73.412;2022-10-16T13:16:26;12.90;66.57
72202;SHT30;60105;54.956;73.412;2022-10-16T13:27:14;12.49;67.24
72202;SHT30;60105;54.956;73.412;2022-10-16T13:33:01;12.35;67.50
72202;SHT30;60105;54.956;73.412;2022-10-16T13:35:34;12.32;67.93
72202;SHT30;60105;54.956;73.412;2022-10-16T13:38:22;12.35;67.88
72202;SHT30;60105;54.956;73.412;2022-10-16T13:41:03;12.39;67.22
72202;SHT30;60105;54.956;73.412;2022-10-16T13:46:11;12.32;67.63
72202;SHT30;60105;54.956;73.412;2022-10-16T13:48:38;12.26;67.53
72202;SHT30;60105;54.956;73.412;2022-10-16T13:51:18;12.14;68.08
72202;SHT30;60105;54.956;73.412;2022-10-16T13:53:45;12.06;68.18
72202;SHT30;60105;54.956;73.412;2022-10-16T13:56:21;11.97;68.17
72202;SHT30;60105;54.956;73.412;2022-10-16T13:59:06;11.90;68.30
72202;SHT30;60105;54.956;73.412;2022-10-16T14:01:35;11.85;68.57
72202;SHT30;60105;54.956;73.412;2022-10-16T14:04:08;11.87;68.86
72202;SHT30;60105;54.956;73.412;2022-10-16T14:06:36;11.75;68.75
72202;SHT30;60105;54.956;73.412;2022-10-16T14:09:07;11.71;69.14
72202;SHT30;60105;54.956;73.412;2022-10-16T14:11:50;11.74;68.98
72202;SHT30;60105;54.956;73.412;2022-10-16T14:14:19;11.71;68.69
72202;SHT30;60105;54.956;73.412;2022-10-16T14:16:46;11.59;68.79
72202;SHT30;60105;54.956;73.412;2022-10-16T14:19:22;11.53;68.85
72202;SHT30;60105;54.956;73.412;2022-10-16T14:21:51;11.54;69.10
72202;SHT30;60105;54.956;73.412;2022-10-16T14:24:35;11.53;69.22
72202;SHT30;60105;54.956;73.412;2022-10-16T14:27:02;11.51;69.53
72202;SHT30;60105;54.956;73.412;2022-10-16T14:29:29;11.56;69.28
72202;SHT30;60105;54.956;73.412;2022-10-16T14:31:59;11.63;68.67
72202;SHT30;60105;54.956;73.412;2022-10-16T14:34:30;11.51;68.78
72202;SHT30;60105;54.956;73.412;2022-10-16T14:39:33;11.61;68.76
72202;SHT30;60105;54.956;73.412;2022-10-16T14:42:00;11.73;68.16
72202;SHT30;60105;54.956;73.412;2022-10-16T14:44:29;11.68;67.45
72202;SHT30;60105;54.956;73.412;2022-10-16T14:46:57;11.56;67.43
72202;SHT30;60105;54.956;73.412;2022-10-16T14:49:34;11.54;67.72
72202;SHT30;60105;54.956;73.412;2022-10-16T14:52:01;11.71;66.86
72202;SHT30;60105;54.956;73.412;2022-10-16T14:54:27;11.71;66.26
72202;SHT30;60105;54.956;73.412;2022-10-16T14:56:58;11.71;66.67
72202;SHT30;60105;54.956;73.412;2022-10-16T14:59:33;11.71;66.06
72202;SHT30;60105;54.956;73.412;2022-10-16T15:02:18;11.87;65.76
72202;SHT30;60105;54.956;73.412;2022-10-16T15:04:47;11.84;65.71
72202;SHT30;60105;54.956;73.412;2022-10-16T15:07:13;11.77;65.70
72202;SHT30;60105;54.956;73.412;2022-10-16T15:09:43;11.68;65.58
72202;SHT30;60105;54.956;73.412;2022-10-16T15:12:20;11.54;65.76
72202;SHT30;60105;54.956;73.412;2022-10-16T15:14:46;11.46;66.29
72202;SHT30;60105;54.956;73.412;2022-10-16T15:17:15;11.26;66.82
72202;SHT30;60105;54.956;73.412;2022-10-16T15:19:51;11.40;66.66
72202;SHT30;60105;54.956;73.412;2022-10-16T15:22:18;11.31;66.87
72202;SHT30;60105;54.956;73.412;2022-10-16T15:24:44;11.12;67.44
72202;SHT30;60105;54.956;73.412;2022-10-16T15:27:10;11.12;67.17
72202;SHT30;60105;54.956;73.412;2022-10-16T15:29:37;10.89;67.96
72202;SHT30;60105;54.956;73.412;2022-10-16T15:32:03;11.02;67.67
72202;SHT30;60105;54.956;73.412;2022-10-16T15:34:29;10.81;68.17
72202;SHT30;60105;54.956;73.412;2022-10-16T15:37:03;10.71;68.39
72202;SHT30;60105;54.956;73.412;2022-10-16T15:39:30;10.62;69.17
72202;SHT30;60105;54.956;73.412;2022-10-16T15:41:56;10.85;68.05
72202;SHT30;60105;54.956;73.412;2022-10-16T15:44:22;10.68;68.39
72202;SHT30;60105;54.956;73.412;2022-10-16T15:46:54;10.48;69.16
72202;SHT30;60105;54.956;73.412;2022-10-16T15:49:21;10.36;69.86
72202;SHT30;60105;54.956;73.412;2022-10-16T15:51:47;10.30;70.01
72202;SHT30;60105;54.956;73.412;2022-10-16T15:54:23;10.24;70.26
72202;SHT30;60105;54.956;73.412;2022-10-16T15:56:49;10.30;70.21
72202;SHT30;60105;54.956;73.412;2022-10-16T15:59:16;10.29;70.26
72202;SHT30;60105;54.956;73.412;2022-10-16T16:01:42;10.57;69.06
72202;SHT30;60105;54.956;73.412;2022-10-16T16:04:08;10.55;69.46
72202;SHT30;60105;54.956;73.412;2022-10-16T16:06:35;10.67;69.92
72202;SHT30;60105;54.956;73.412;2022-10-16T16:09:03;11.08;68.77
72202;SHT30;60105;54.956;73.412;2022-10-16T16:11:29;11.15;67.48
72202;SHT30;60105;54.956;73.412;2022-10-16T16:13:57;11.09;67.05
72202;SHT30;60105;54.956;73.412;2022-10-16T16:16:24;10.92;67.80
72202;SHT30;60105;54.956;73.412;2022-10-16T16:18:52;10.75;68.31
72202;SHT30;60105;54.956;73.412;2022-10-16T16:21:19;10.61;69.02
72202;SHT30;60105;54.956;73.412;2022-10-16T16:23:45;10.55;68.82
72202;SHT30;60105;54.956;73.412;2022-10-16T16:26:22;10.58;69.02
72202;SHT30;60105;54.956;73.412;2022-10-16T16:28:53;10.81;69.19
72202;SHT30;60105;54.956;73.412;2022-10-16T16:31:20;11.03;67.96
72202;SHT30;60105;54.956;73.412;2022-10-16T16:33:49;11.43;65.65
72202;SHT30;60105;54.956;73.412;2022-10-16T16:36:18;11.23;66.26
72202;SHT30;60105;54.956;73.412;2022-10-16T16:38:45;11.03;66.38
72202;SHT30;60105;54.956;73.412;2022-10-16T16:41:16;11.08;66.45
72202;SHT30;60105;54.956;73.412;2022-10-16T16:43:49;10.99;66.39
72202;SHT30;60105;54.956;73.412;2022-10-16T16:46:27;11.05;67.05
72202;SHT30;60105;54.956;73.412;2022-10-16T16:48:53;11.15;66.77
72202;SHT30;60105;54.956;73.412;2022-10-16T16:51:26;11.23;66.13
72202;SHT30;60105;54.956;73.412;2022-10-16T16:53:53;11.02;66.93
72202;SHT30;60105;54.956;73.412;2022-10-16T16:56:21;10.89;67.09
72202;SHT30;60105;54.956;73.412;2022-10-16T16:58:50;10.82;67.43
72202;SHT30;60105;54.956;73.412;2022-10-16T17:01:17;10.67;67.54
72202;SHT30;60105;54.956;73.412;2022-10-16T17:03:44;10.72;68.17
72202;SHT30;60105;54.956;73.412;2022-10-16T17:06:12;10.62;67.59
72202;SHT30;60105;54.956;73.412;2022-10-16T17:08:38;10.51;68.25
72202;SHT30;60105;54.956;73.412;2022-10-16T17:11:15;10.31;68.87
72202;SHT30;60105;54.956;73.412;2022-10-16T17:13:52;10.20;69.20
72202;SHT30;60105;54.956;73.412;2022-10-16T17:16:21;10.44;68.61
72202;SHT30;60105;54.956;73.412;2022-10-16T17:18:48;10.45;68.38
72202;SHT30;60105;54.956;73.412;2022-10-16T17:21:14;10.33;68.82
72202;SHT30;60105;54.956;73.412;2022-10-16T17:23:40;10.50;68.58
72202;SHT30;60105;54.956;73.412;2022-10-16T17:26:10;10.47;68.65
72202;SHT30;60105;54.956;73.412;2022-10-16T17:28:37;10.71;68.45
72202;SHT30;60105;54.956;73.412;2022-10-16T17:31:28;11.12;67.36
72202;SHT30;60105;54.956;73.412;2022-10-16T17:33:56;11.01;66.47
72202;SHT30;60105;54.956;73.412;2022-10-16T17:36:22;10.72;67.50
72202;SHT30;60105;54.956;73.412;2022-10-16T17:38:49;10.62;68.00
72202;SHT30;60105;54.956;73.412;2022-10-16T17:41:20;10.55;68.06
72202;SHT30;60105;54.956;73.412;2022-10-16T17:43:48;10.52;68.29